sensor_id;sensor_type;location;lat;lon;timestamp;pressure;altitude;pressure_sealevel;temperature;humidity
33554;BME280;19885;42.208;24.952;2023-05-07T00:01:48;100146.97;;;17.11;76.33
33554;BME280;19885;42.208;24.952;2023-05-07T00:04:13;100160.03;;;17.18;75.61
33554;BME280;19885;42.208;24.952;2023-05-07T00:06:39;100156.59;;;17.14;75.56
33554;BME280;19885;42.208;24.952;2023-05-07T00:09:05;100161.00;;;17.10;75.36
33554;BME280;19885;42.208;24.952;2023-05-07T00:11:31;100159.31;;;17.06;76.13
33554;BME280;19885;42.208;24.952;2023-05-07T00:13:56;100152.53;;;16.90;77.47
33554;BME280;19885;42.208;24.952;2023-05-07T00:16:22;100152.69;;;16.80;77.95
33554;BME280;19885;42.208;24.952;2023-05-07T00:18:47;100144.84;;;16.78;77.31
33554;BME280;19885;42.208;24.952;2023-05-07T00:21:13;100154.28;;;16.91;77.50
33554;BME280;19885;42.208;24.952;2023-05-07T00:23:38;100157.22;;;16.72;78.83
33554;BME280;19885;42.208;24.952;2023-05-07T00:26:04;100153.69;;;16.70;78.21
33554;BME280;19885;42.208;24.952;2023-05-07T00:28:29;100152.91;;;16.65;78.59
33554;BME280;19885;42.208;24.952;2023-05-07T00:30:55;100150.38;;;16.57;78.60
33554;BME280;19885;42.208;24.952;2023-05-07T00:33:20;100148.78;;;16.41;79.31
33554;BME280;19885;42.208;24.952;2023-05-07T00:35:48;100153.19;;;16.42;78.48
33554;BME280;19885;42.208;24.952;2023-05-07T00:38:13;100149.72;;;16.37;78.88
33554;BME280;19885;42.208;24.952;2023-05-07T00:40:39;100146.16;;;16.41;78.86
33554;BME280;19885;42.208;24.952;2023-05-07T00:43:06;100144.50;;;16.34;79.22
33554;BME280;19885;42.208;24.952;2023-05-07T00:45:33;100145.34;;;16.36;78.51
33554;BME280;19885;42.208;24.952;2023-05-07T00:48:02;100146.31;;;16.29;78.97
33554;BME280;19885;42.208;24.952;2023-05-07T00:50:28;100136.75;;;16.23;78.91
33554;BME280;19885;42.208;24.952;2023-05-07T00:52:54;100145.41;;;16.31;77.94
33554;BME280;19885;42.208;24.952;2023-05-07T00:55:21;100147.38;;;16.13;79.18
33554;BME280;19885;42.208;24.952;2023-05-07T00:57:46;100146.41;;;16.20;77.89
33554;BME280;19885;42.208;24.952;2023-05-07T01:00:12;100149.97;;;16.16;78.02
33554;BME280;19885;42.208;24.952;2023-05-07T01:02:39;100136.09;;;16.02;78.26
33554;BME280;19885;42.208;24.952;2023-05-07T01:05:06;100153.69;;;15.98;78.63
33554;BME280;19885;42.208;24.952;2023-05-07T01:07:33;100159.44;;;15.47;79.37
33554;BME280;19885;42.208;24.952;2023-05-07T01:10:00;100148.94;;;15.39;80.16
33554;BME280;19885;42.208;24.952;2023-05-07T01:12:28;100092.97;;;15.31;79.89
33554;BME280;19885;42.208;24.952;2023-05-07T01:14:54;100145.91;;;15.86;79.10
33554;BME280;19885;42.208;24.952;2023-05-07T01:17:19;100141.53;;;15.87;78.89
33554;BME280;19885;42.208;24.952;2023-05-07T01:19:45;100146.78;;;15.87;78.63
33554;BME280;19885;42.208;24.952;2023-05-07T01:22:11;100157.41;;;15.78;78.75
33554;BME280;19885;42.208;24.952;2023-05-07T01:24:40;100139.31;;;15.44;78.75
33554;BME280;19885;42.208;24.952;2023-05-07T01:27:05;100148.75;;;15.63;78.95
33554;BME280;19885;42.208;24.952;2023-05-07T01:29:31;100136.53;;;15.61;79.33
33554;BME280;19885;42.208;24.952;2023-05-07T01:32:01;100127.00;;;15.49;79.15
33554;BME280;19885;42.208;24.952;2023-05-07T01:34:28;100131.31;;;15.56;79.31
33554;BME280;19885;42.208;24.952;2023-05-07T01:36:56;100142.69;;;15.57;78.52
33554;BME280;19885;42.208;24.952;2023-05-07T01:39:25;100127.13;;;15.31;78.87
33554;BME280;19885;42.208;24.952;2023-05-07T01:41:51;100142.81;;;15.42;79.28
33554;BME280;19885;42.208;24.952;2023-05-07T01:44:18;100145.88;;;14.77;81.75
33554;BME280;19885;42.208;24.952;2023-05-07T01:46:44;100145.75;;;15.01;81.42
33554;BME280;19885;42.208;24.952;2023-05-07T01:49:10;100157.00;;;15.18;81.23
33554;BME280;19885;42.208;24.952;2023-05-07T01:51:36;100150.97;;;15.04;81.56
33554;BME280;19885;42.208;24.952;2023-05-07T01:54:02;100144.97;;;14.84;81.95
33554;BME280;19885;42.208;24.952;2023-05-07T01:56:27;100137.22;;;14.64;82.50
33554;BME280;19885;42.208;24.952;2023-05-07T01:58:53;100139.75;;;14.79;82.57
33554;BME280;19885;42.208;24.952;2023-05-07T02:01:18;100136.22;;;14.85;82.08
33554;BME280;19885;42.208;24.952;2023-05-07T02:03:44;100138.66;;;15.12;81.28
33554;BME280;19885;42.208;24.952;2023-05-07T02:06:09;100072.38;;;14.84;80.68
33554;BME280;19885;42.208;24.952;2023-05-07T02:08:35;100124.63;;;15.16;80.71
33554;BME280;19885;42.208;24.952;2023-05-07T02:11:01;100120.28;;;15.11;80.85
33554;BME280;19885;42.208;24.952;2023-05-07T02:13:29;100120.25;;;15.15;81.53
33554;BME280;19885;42.208;24.952;2023-05-07T02:15:55;100116.03;;;14.96;82.54
33554;BME280;19885;42.208;24.952;2023-05-07T02:18:20;100118.63;;;15.00;82.35
33554;BME280;19885;42.208;24.952;2023-05-07T02:20:45;100117.75;;;14.98;81.71
33554;BME280;19885;42.208;24.952;2023-05-07T02:23:11;100120.50;;;14.80;81.86
33554;BME280;19885;42.208;24.952;2023-05-07T02:25:38;100107.38;;;14.85;82.45
33554;BME280;19885;42.208;24.952;2023-05-07T02:28:03;100121.34;;;14.87;82.98
33554;BME280;19885;42.208;24.952;2023-05-07T02:30:28;100127.53;;;14.78;83.85
33554;BME280;19885;42.208;24.952;2023-05-07T02:32:54;100120.56;;;14.70;83.95
33554;BME280;19885;42.208;24.952;2023-05-07T02:35:20;100115.38;;;14.59;84.32
33554;BME280;19885;42.208;24.952;2023-05-07T02:37:45;100119.03;;;14.33;85.23
33554;BME280;19885;42.208;24.952;2023-05-07T02:40:11;100116.34;;;14.45;85.45
33554;BME280;19885;42.208;24.952;2023-05-07T02:42:36;100101.56;;;14.30;85.18
33554;BME280;19885;42.208;24.952;2023-05-07T02:45:02;100093.66;;;14.27;85.08
33554;BME280;19885;42.208;24.952;2023-05-07T02:47:28;100016.13;;;13.75;85.52
33554;BME280;19885;42.208;24.952;2023-05-07T02:49:54;100108.53;;;14.28;85.99
33554;BME280;19885;42.208;24.952;2023-05-07T02:52:20;100107.66;;;14.32;86.16
33554;BME280;19885;42.208;24.952;2023-05-07T02:54:45;100106.00;;;13.99;87.22
33554;BME280;19885;42.208;24.952;2023-05-07T02:57:11;100100.72;;;14.10;87.85
33554;BME280;19885;42.208;24.952;2023-05-07T02:59:36;100108.53;;;14.23;86.64
33554;BME280;19885;42.208;24.952;2023-05-07T03:02:02;100102.41;;;14.23;86.69
33554;BME280;19885;42.208;24.952;2023-05-07T03:04:27;100100.66;;;14.33;86.15
33554;BME280;19885;42.208;24.952;2023-05-07T03:06:52;100097.16;;;14.37;86.11
33554;BME280;19885;42.208;24.952;2023-05-07T03:09:18;100091.03;;;14.28;86.45
33554;BME280;19885;42.208;24.952;2023-05-07T03:11:43;100070.09;;;14.21;86.01
33554;BME280;19885;42.208;24.952;2023-05-07T03:14:09;100077.94;;;14.28;86.33
33554;BME280;19885;42.208;24.952;2023-05-07T03:16:37;100091.06;;;14.25;86.90
33554;BME280;19885;42.208;24.952;2023-05-07T03:19:02;100034.44;;;13.90;87.23
33554;BME280;19885;42.208;24.952;2023-05-07T03:21:28;100097.19;;;14.18;87.20
33554;BME280;19885;42.208;24.952;2023-05-07T03:23:53;100099.03;;;14.01;87.22
33554;BME280;19885;42.208;24.952;2023-05-07T03:26:19;100099.13;;;13.62;89.98
33554;BME280;19885;42.208;24.952;2023-05-07T03:28:45;100092.97;;;13.77;89.69
33554;BME280;19885;42.208;24.952;2023-05-07T03:31:10;100092.09;;;13.79;89.28
33554;BME280;19885;42.208;24.952;2023-05-07T03:33:49;100098.16;;;13.98;87.92
33554;BME280;19885;42.208;24.952;2023-05-07T03:36:15;100058.09;;;13.63;85.74
33554;BME280;19885;42.208;24.952;2023-05-07T03:38:40;100113.88;;;13.86;85.11
33554;BME280;19885;42.208;24.952;2023-05-07T03:41:05;100093.84;;;13.68;87.84
33554;BME280;19885;42.208;24.952;2023-05-07T03:43:31;100110.44;;;13.70;88.67
33554;BME280;19885;42.208;24.952;2023-05-07T03:45:56;100106.13;;;13.27;92.11
33554;BME280;19885;42.208;24.952;2023-05-07T03:48:22;100106.09;;;13.00;95.96
33554;BME280;19885;42.208;24.952;2023-05-07T03:50:47;100114.81;;;13.59;93.86
33554;BME280;19885;42.208;24.952;2023-05-07T03:53:13;100118.38;;;13.26;96.04
33554;BME280;19885;42.208;24.952;2023-05-07T03:55:39;100120.91;;;13.81;93.86
33554;BME280;19885;42.208;24.952;2023-05-07T03:58:04;100116.59;;;13.45;94.42
33554;BME280;19885;42.208;24.952;2023-05-07T04:00:30;100121.84;;;13.24;97.72
33554;BME280;19885;42.208;24.952;2023-05-07T04:02:58;100126.97;;;12.72;100.00
33554;BME280;19885;42.208;24.952;2023-05-07T04:05:24;100128.75;;;12.72;100.00
33554;BME280;19885;42.208;24.952;2023-05-07T04:07:50;100122.72;;;13.27;99.89
33554;BME280;19885;42.208;24.952;2023-05-07T04:10:15;100118.31;;;13.73;96.54
33554;BME280;19885;42.208;24.952;2023-05-07T04:12:41;100113.13;;;13.28;99.01
33554;BME280;19885;42.208;24.952;2023-05-07T04:15:07;100127.97;;;13.47;98.07
33554;BME280;19885;42.208;24.952;2023-05-07T04:17:32;100116.59;;;13.25;100.00
33554;BME280;19885;42.208;24.952;2023-05-07T04:19:58;100122.69;;;13.54;98.60
33554;BME280;19885;42.208;24.952;2023-05-07T04:22:23;100127.97;;;13.42;99.60
33554;BME280;19885;42.208;24.952;2023-05-07T04:24:48;100120.06;;;13.59;100.00
33554;BME280;19885;42.208;24.952;2023-05-07T04:27:14;100121.75;;;13.89;98.34
33554;BME280;19885;42.208;24.952;2023-05-07T04:29:40;100124.38;;;13.86;98.48
33554;BME280;19885;42.208;24.952;2023-05-07T04:32:08;100103.47;;;13.54;100.00
33554;BME280;19885;42.208;24.952;2023-05-07T04:34:36;100131.41;;;13.72;100.00
33554;BME280;19885;42.208;24.952;2023-05-07T04:37:02;100132.16;;;14.14;98.70
33554;BME280;19885;42.208;24.952;2023-05-07T04:39:27;100127.84;;;13.95;98.61
33554;BME280;19885;42.208;24.952;2023-05-07T04:41:55;100121.69;;;14.08;99.28
33554;BME280;19885;42.208;24.952;2023-05-07T04:44:20;100122.59;;;14.01;99.44
33554;BME280;19885;42.208;24.952;2023-05-07T04:46:46;100130.41;;;14.19;98.47
33554;BME280;19885;42.208;24.952;2023-05-07T04:49:14;100116.44;;;14.08;98.23
33554;BME280;19885;42.208;24.952;2023-05-07T04:51:39;100130.38;;;14.18;98.26
33554;BME280;19885;42.208;24.952;2023-05-07T04:54:07;100140.00;;;14.33;97.72
33554;BME280;19885;42.208;24.952;2023-05-07T04:56:33;100137.28;;;14.51;98.03
33554;BME280;19885;42.208;24.952;2023-05-07T04:58:58;100130.38;;;14.30;98.11
33554;BME280;19885;42.208;24.952;2023-05-07T05:01:24;100140.84;;;14.28;98.15
33554;BME280;19885;42.208;24.952;2023-05-07T05:03:49;100145.81;;;14.89;95.08
33554;BME280;19885;42.208;24.952;2023-05-07T05:06:15;100146.72;;;14.82;95.81
33554;BME280;19885;42.208;24.952;2023-05-07T05:08:40;100135.31;;;14.86;95.95
33554;BME280;19885;42.208;24.952;2023-05-07T05:11:06;100099.66;;;14.55;95.88
33554;BME280;19885;42.208;24.952;2023-05-07T05:13:31;100131.03;;;14.74;96.19
33554;BME280;19885;42.208;24.952;2023-05-07T05:15:56;100146.63;;;14.97;95.52
33554;BME280;19885;42.208;24.952;2023-05-07T05:18:22;100145.81;;;14.86;95.94
33554;BME280;19885;42.208;24.952;2023-05-07T05:20:47;100149.13;;;15.15;93.86
33554;BME280;19885;42.208;24.952;2023-05-07T05:23:13;100142.00;;;15.35;93.23
33554;BME280;19885;42.208;24.952;2023-05-07T05:25:38;100149.09;;;15.18;93.16
33554;BME280;19885;42.208;24.952;2023-05-07T05:28:05;100150.03;;;15.13;93.77
33554;BME280;19885;42.208;24.952;2023-05-07T05:30:30;100156.19;;;15.07;93.76
33554;BME280;19885;42.208;24.952;2023-05-07T05:32:56;100153.41;;;15.27;93.18
33554;BME280;19885;42.208;24.952;2023-05-07T05:35:21;100101.84;;;15.18;92.06
33554;BME280;19885;42.208;24.952;2023-05-07T05:37:47;100171.69;;;15.43;92.18
33554;BME280;19885;42.208;24.952;2023-05-07T05:40:13;100107.19;;;15.06;92.86
33554;BME280;19885;42.208;24.952;2023-05-07T05:42:38;100171.53;;;15.64;91.89
33554;BME280;19885;42.208;24.952;2023-05-07T05:45:04;100165.84;;;16.07;89.62
33554;BME280;19885;42.208;24.952;2023-05-07T05:47:30;100169.59;;;15.82;89.86
33554;BME280;19885;42.208;24.952;2023-05-07T05:49:55;100113.91;;;15.40;90.54
33554;BME280;19885;42.208;24.952;2023-05-07T05:52:21;100143.13;;;16.00;88.84
33554;BME280;19885;42.208;24.952;2023-05-07T05:54:49;100162.94;;;16.32;89.07
33554;BME280;19885;42.208;24.952;2023-05-07T05:57:14;100176.44;;;16.77;87.55
33554;BME280;19885;42.208;24.952;2023-05-07T05:59:40;100111.97;;;16.41;84.90
33554;BME280;19885;42.208;24.952;2023-05-07T06:02:06;100173.19;;;16.58;86.74
33554;BME280;19885;42.208;24.952;2023-05-07T06:04:32;100157.09;;;16.81;87.28
33554;BME280;19885;42.208;24.952;2023-05-07T06:06:57;100166.34;;;17.07;85.69
33554;BME280;19885;42.208;24.952;2023-05-07T06:09:22;100172.63;;;16.99;84.75
33554;BME280;19885;42.208;24.952;2023-05-07T06:11:48;100128.09;;;16.82;83.66
33554;BME280;19885;42.208;24.952;2023-05-07T06:14:13;100168.84;;;17.17;83.95
33554;BME280;19885;42.208;24.952;2023-05-07T06:16:39;100179.06;;;17.36;82.51
33554;BME280;19885;42.208;24.952;2023-05-07T06:19:04;100176.00;;;17.65;85.14
33554;BME280;19885;42.208;24.952;2023-05-07T06:21:30;100126.94;;;17.56;82.04
33554;BME280;19885;42.208;24.952;2023-05-07T06:23:56;100177.72;;;18.15;81.00
33554;BME280;19885;42.208;24.952;2023-05-07T06:26:21;100175.06;;;18.16;78.73
33554;BME280;19885;42.208;24.952;2023-05-07T06:28:46;100160.72;;;17.83;78.00
33554;BME280;19885;42.208;24.952;2023-05-07T06:31:14;100171.38;;;18.25;78.66
33554;BME280;19885;42.208;24.952;2023-05-07T06:33:41;100170.25;;;17.92;79.30
33554;BME280;19885;42.208;24.952;2023-05-07T06:36:07;100166.66;;;17.43;80.79
33554;BME280;19885;42.208;24.952;2023-05-07T06:38:33;100165.72;;;17.47;80.93
33554;BME280;19885;42.208;24.952;2023-05-07T06:40:58;100160.84;;;17.23;80.47
33554;BME280;19885;42.208;24.952;2023-05-07T06:43:24;100168.41;;;17.42;79.95
33554;BME280;19885;42.208;24.952;2023-05-07T06:45:49;100163.06;;;18.00;78.25
33554;BME280;19885;42.208;24.952;2023-05-07T06:48:14;100147.06;;;18.09;76.22
33554;BME280;19885;42.208;24.952;2023-05-07T06:50:41;100165.03;;;17.89;72.93
33554;BME280;19885;42.208;24.952;2023-05-07T06:53:07;100163.84;;;18.04;75.50
33554;BME280;19885;42.208;24.952;2023-05-07T06:55:32;100162.09;;;18.06;76.13
33554;BME280;19885;42.208;24.952;2023-05-07T06:57:58;100166.13;;;18.22;75.36
33554;BME280;19885;42.208;24.952;2023-05-07T07:00:26;100157.38;;;18.21;75.02
33554;BME280;19885;42.208;24.952;2023-05-07T07:02:53;100160.09;;;18.17;75.42
33554;BME280;19885;42.208;24.952;2023-05-07T07:05:18;100159.88;;;17.81;76.92
33554;BME280;19885;42.208;24.952;2023-05-07T07:07:44;100105.16;;;17.94;76.72
33554;BME280;19885;42.208;24.952;2023-05-07T07:10:09;100085.00;;;17.90;73.81
33554;BME280;19885;42.208;24.952;2023-05-07T07:12:35;100152.66;;;18.35;75.51
33554;BME280;19885;42.208;24.952;2023-05-07T07:15:00;100106.50;;;18.13;74.23
33554;BME280;19885;42.208;24.952;2023-05-07T07:17:26;100173.75;;;18.81;76.46
33554;BME280;19885;42.208;24.952;2023-05-07T07:19:51;100168.53;;;18.78;75.34
33554;BME280;19885;42.208;24.952;2023-05-07T07:22:16;100164.34;;;19.08;73.30
33554;BME280;19885;42.208;24.952;2023-05-07T07:24:42;100171.34;;;19.09;74.42
33554;BME280;19885;42.208;24.952;2023-05-07T07:27:07;100162.59;;;19.07;78.22
33554;BME280;19885;42.208;24.952;2023-05-07T07:29:33;100171.19;;;19.15;71.76
33554;BME280;19885;42.208;24.952;2023-05-07T07:31:58;100173.41;;;19.35;75.96
33554;BME280;19885;42.208;24.952;2023-05-07T07:34:24;100112.63;;;19.33;72.46
33554;BME280;19885;42.208;24.952;2023-05-07T07:36:49;100165.19;;;19.82;70.43
33554;BME280;19885;42.208;24.952;2023-05-07T07:39:14;100169.69;;;19.78;69.23
33554;BME280;19885;42.208;24.952;2023-05-07T07:41:40;100171.94;;;19.93;71.18
33554;BME280;19885;42.208;24.952;2023-05-07T07:44:06;100167.88;;;19.45;69.04
33554;BME280;19885;42.208;24.952;2023-05-07T07:46:33;100175.81;;;19.45;69.35
33554;BME280;19885;42.208;24.952;2023-05-07T07:48:58;100184.31;;;19.58;72.79
33554;BME280;19885;42.208;24.952;2023-05-07T07:51:25;100126.75;;;19.32;67.50
33554;BME280;19885;42.208;24.952;2023-05-07T07:53:51;100171.09;;;19.58;67.85
33554;BME280;19885;42.208;24.952;2023-05-07T07:56:17;100177.75;;;19.72;65.23
33554;BME280;19885;42.208;24.952;2023-05-07T07:58:42;100175.47;;;19.92;65.13
33554;BME280;19885;42.208;24.952;2023-05-07T08:01:07;100176.09;;;20.02;66.81
33554;BME280;19885;42.208;24.952;2023-05-07T08:03:33;100181.44;;;20.01;67.14
33554;BME280;19885;42.208;24.952;2023-05-07T08:05:59;100167.22;;;20.05;68.18
33554;BME280;19885;42.208;24.952;2023-05-07T08:08:24;100167.72;;;20.19;66.61
33554;BME280;19885;42.208;24.952;2023-05-07T08:10:50;100120.47;;;20.05;67.16
33554;BME280;19885;42.208;24.952;2023-05-07T08:13:16;100175.19;;;20.35;65.72
33554;BME280;19885;42.208;24.952;2023-05-07T08:15:41;100124.13;;;20.32;63.65
33554;BME280;19885;42.208;24.952;2023-05-07T08:18:07;100163.44;;;20.76;63.24
33554;BME280;19885;42.208;24.952;2023-05-07T08:20:32;100175.66;;;20.51;61.49
33554;BME280;19885;42.208;24.952;2023-05-07T08:22:58;100155.97;;;20.29;62.03
33554;BME280;19885;42.208;24.952;2023-05-07T08:25:24;100163.31;;;20.19;63.02
33554;BME280;19885;42.208;24.952;2023-05-07T08:27:49;100149.44;;;19.77;65.62
33554;BME280;19885;42.208;24.952;2023-05-07T08:30:15;100150.41;;;20.38;66.02
33554;BME280;19885;42.208;24.952;2023-05-07T08:32:40;100151.03;;;20.47;64.83
33554;BME280;19885;42.208;24.952;2023-05-07T08:35:06;100116.81;;;20.40;65.34
33554;BME280;19885;42.208;24.952;2023-05-07T08:37:32;100162.59;;;20.74;63.48
33554;BME280;19885;42.208;24.952;2023-05-07T08:39:57;100124.69;;;20.43;59.90
33554;BME280;19885;42.208;24.952;2023-05-07T08:42:23;100157.75;;;20.59;62.27
33554;BME280;19885;42.208;24.952;2023-05-07T08:44:51;100157.44;;;20.70;60.83
33554;BME280;19885;42.208;24.952;2023-05-07T08:47:19;100151.72;;;20.83;63.96
33554;BME280;19885;42.208;24.952;2023-05-07T08:49:45;100151.16;;;21.01;59.42
33554;BME280;19885;42.208;24.952;2023-05-07T08:52:12;100152.69;;;21.10;59.22
33554;BME280;19885;42.208;24.952;2023-05-07T08:54:37;100153.75;;;21.32;55.22
33554;BME280;19885;42.208;24.952;2023-05-07T08:57:03;100151.41;;;21.49;55.95
33554;BME280;19885;42.208;24.952;2023-05-07T08:59:29;100136.56;;;21.44;57.65
33554;BME280;19885;42.208;24.952;2023-05-07T09:01:55;100135.44;;;21.51;51.12
33554;BME280;19885;42.208;24.952;2023-05-07T09:04:20;100140.59;;;21.55;51.81
33554;BME280;19885;42.208;24.952;2023-05-07T09:06:46;100137.34;;;21.72;54.17
33554;BME280;19885;42.208;24.952;2023-05-07T09:09:17;100142.66;;;21.72;52.47
33554;BME280;19885;42.208;24.952;2023-05-07T09:11:45;100096.75;;;21.17;52.22
33554;BME280;19885;42.208;24.952;2023-05-07T09:14:10;100144.22;;;21.53;49.79
33554;BME280;19885;42.208;24.952;2023-05-07T09:16:36;100146.09;;;21.75;50.62
33554;BME280;19885;42.208;24.952;2023-05-07T09:19:01;100129.66;;;21.90;51.28
33554;BME280;19885;42.208;24.952;2023-05-07T09:21:27;100129.66;;;21.90;52.52
33554;BME280;19885;42.208;24.952;2023-05-07T09:23:54;100126.97;;;21.92;50.08
33554;BME280;19885;42.208;24.952;2023-05-07T09:26:24;100132.22;;;21.93;49.20
33554;BME280;19885;42.208;24.952;2023-05-07T09:28:50;100127.66;;;21.97;49.03
33554;BME280;19885;42.208;24.952;2023-05-07T09:31:16;100128.47;;;21.99;48.46
33554;BME280;19885;42.208;24.952;2023-05-07T09:33:41;100123.44;;;21.91;50.31
33554;BME280;19885;42.208;24.952;2023-05-07T09:36:08;100124.94;;;22.23;52.22
33554;BME280;19885;42.208;24.952;2023-05-07T09:38:35;100122.16;;;22.26;49.78
33554;BME280;19885;42.208;24.952;2023-05-07T09:41:05;100118.81;;;22.44;48.32
33554;BME280;19885;42.208;24.952;2023-05-07T09:43:33;100118.00;;;22.42;48.23
33554;BME280;19885;42.208;24.952;2023-05-07T09:46:02;100115.22;;;22.70;49.61
33554;BME280;19885;42.208;24.952;2023-05-07T09:48:29;100111.38;;;22.54;48.91
33554;BME280;19885;42.208;24.952;2023-05-07T09:50:55;100115.34;;;22.42;49.28
33554;BME280;19885;42.208;24.952;2023-05-07T09:53:25;100116.16;;;22.44;47.32
33554;BME280;19885;42.208;24.952;2023-05-07T09:55:51;100113.66;;;22.41;47.26
33554;BME280;19885;42.208;24.952;2023-05-07T09:58:18;100105.66;;;22.18;46.31
33554;BME280;19885;42.208;24.952;2023-05-07T10:00:44;100093.53;;;22.57;49.06
33554;BME280;19885;42.208;24.952;2023-05-07T10:03:11;100095.19;;;22.14;48.18
33554;BME280;19885;42.208;24.952;2023-05-07T10:05:38;100083.63;;;22.39;49.56
33554;BME280;19885;42.208;24.952;2023-05-07T10:08:04;100090.09;;;22.55;48.92
33554;BME280;19885;42.208;24.952;2023-05-07T10:10:32;100076.09;;;22.50;53.70
33554;BME280;19885;42.208;24.952;2023-05-07T10:12:58;100092.25;;;22.69;55.09
33554;BME280;19885;42.208;24.952;2023-05-07T10:15:24;100090.06;;;22.79;47.81
33554;BME280;19885;42.208;24.952;2023-05-07T10:17:51;100091.81;;;22.80;49.02
33554;BME280;19885;42.208;24.952;2023-05-07T10:20:18;100099.31;;;22.92;47.96
33554;BME280;19885;42.208;24.952;2023-05-07T10:22:46;100075.50;;;22.89;48.02
33554;BME280;19885;42.208;24.952;2023-05-07T10:25:22;100083.16;;;22.96;48.88
33554;BME280;19885;42.208;24.952;2023-05-07T10:27:50;100083.16;;;23.18;49.24
33554;BME280;19885;42.208;24.952;2023-05-07T10:30:31;100076.91;;;23.19;48.23
33554;BME280;19885;42.208;24.952;2023-05-07T10:33:03;100070.47;;;23.24;50.21
33554;BME280;19885;42.208;24.952;2023-05-07T10:35:36;100077.56;;;23.46;49.31
33554;BME280;19885;42.208;24.952;2023-05-07T10:38:03;100057.81;;;23.51;47.00
33554;BME280;19885;42.208;24.952;2023-05-07T10:40:30;100052.09;;;23.60;45.62
33554;BME280;19885;42.208;24.952;2023-05-07T10:43:03;100049.69;;;23.74;47.43
33554;BME280;19885;42.208;24.952;2023-05-07T10:45:32;100031.41;;;23.67;46.00
33554;BME280;19885;42.208;24.952;2023-05-07T10:48:12;100055.97;;;23.73;50.58
33554;BME280;19885;42.208;24.952;2023-05-07T10:50:39;100053.94;;;23.98;47.07
33554;BME280;19885;42.208;24.952;2023-05-07T10:55:47;100019.88;;;24.25;46.94
33554;BME280;19885;42.208;24.952;2023-05-07T10:58:27;100040.31;;;24.25;45.73
33554;BME280;19885;42.208;24.952;2023-05-07T11:01:00;100029.91;;;24.39;49.14
33554;BME280;19885;42.208;24.952;2023-05-07T11:03:27;100026.94;;;24.45;43.74
33554;BME280;19885;42.208;24.952;2023-05-07T11:06:16;100041.56;;;24.73;47.78
33554;BME280;19885;42.208;24.952;2023-05-07T11:08:57;99977.78;;;23.94;43.27
33554;BME280;19885;42.208;24.952;2023-05-07T11:11:48;100038.22;;;24.13;43.86
33554;BME280;19885;42.208;24.952;2023-05-07T11:17:06;100036.03;;;24.02;44.36
33554;BME280;19885;42.208;24.952;2023-05-07T11:19:52;100029.88;;;24.20;48.09
33554;BME280;19885;42.208;24.952;2023-05-07T11:22:44;100036.38;;;24.52;45.57
33554;BME280;19885;42.208;24.952;2023-05-07T11:25:09;99981.59;;;24.28;48.65
33554;BME280;19885;42.208;24.952;2023-05-07T11:27:36;100036.59;;;24.66;44.41
33554;BME280;19885;42.208;24.952;2023-05-07T11:30:02;100030.69;;;24.78;44.90
33554;BME280;19885;42.208;24.952;2023-05-07T11:32:29;100019.63;;;24.86;42.75
33554;BME280;19885;42.208;24.952;2023-05-07T11:34:56;100005.59;;;24.82;43.89
33554;BME280;19885;42.208;24.952;2023-05-07T11:37:22;100018.34;;;24.94;44.06
33554;BME280;19885;42.208;24.952;2023-05-07T11:39:49;99993.19;;;24.62;42.41
33554;BME280;19885;42.208;24.952;2023-05-07T11:42:32;100025.06;;;24.65;44.46
33554;BME280;19885;42.208;24.952;2023-05-07T11:44:59;100021.91;;;24.57;41.99
33554;BME280;19885;42.208;24.952;2023-05-07T11:47:24;99959.75;;;24.20;45.46
33554;BME280;19885;42.208;24.952;2023-05-07T11:49:54;100024.59;;;24.76;45.48
33554;BME280;19885;42.208;24.952;2023-05-07T11:52:22;100019.50;;;24.70;41.64
33554;BME280;19885;42.208;24.952;2023-05-07T11:54:55;100026.41;;;24.74;42.87
33554;BME280;19885;42.208;24.952;2023-05-07T11:57:22;100013.78;;;24.96;41.51
33554;BME280;19885;42.208;24.952;2023-05-07T11:59:48;100020.59;;;24.85;40.01
33554;BME280;19885;42.208;24.952;2023-05-07T12:02:17;100011.94;;;24.61;41.62
33554;BME280;19885;42.208;24.952;2023-05-07T12:04:43;100010.50;;;24.91;45.30
33554;BME280;19885;42.208;24.952;2023-05-07T12:07:12;99970.72;;;24.68;40.99
33554;BME280;19885;42.208;24.952;2023-05-07T12:09:39;99996.22;;;25.09;44.36
33554;BME280;19885;42.208;24.952;2023-05-07T12:12:05;99997.59;;;24.82;40.09
33554;BME280;19885;42.208;24.952;2023-05-07T12:14:31;99951.28;;;24.66;42.49
33554;BME280;19885;42.208;24.952;2023-05-07T12:16:58;100009.28;;;24.79;39.87
33554;BME280;19885;42.208;24.952;2023-05-07T12:19:24;99948.09;;;24.58;42.32
33554;BME280;19885;42.208;24.952;2023-05-07T12:21:50;99989.28;;;24.88;41.01
33554;BME280;19885;42.208;24.952;2023-05-07T12:24:16;99990.63;;;24.79;39.83
33554;BME280;19885;42.208;24.952;2023-05-07T12:26:41;99973.00;;;24.94;40.08
33554;BME280;19885;42.208;24.952;2023-05-07T12:29:08;99990.84;;;24.92;38.89
33554;BME280;19885;42.208;24.952;2023-05-07T12:31:34;99989.59;;;24.82;39.43
33554;BME280;19885;42.208;24.952;2023-05-07T12:33:59;99984.28;;;24.82;39.51
33554;BME280;19885;42.208;24.952;2023-05-07T12:36:25;99975.81;;;24.91;39.01
33554;BME280;19885;42.208;24.952;2023-05-07T12:38:51;99977.59;;;24.91;37.68
33554;BME280;19885;42.208;24.952;2023-05-07T12:41:16;99962.16;;;24.80;39.63
33554;BME280;19885;42.208;24.952;2023-05-07T12:43:46;99974.03;;;24.92;38.96